KLXY

Details ICAO KLXY
Name MEXIA LIMESTONE CO
Region United States
Timezone America/Chicago (UTC-6.0)
Plans Departing 1
Arriving 3
Stats Elevation 544 ft / 166 m (AMSL)
Location 31.639823° -96.514719°
Runways 1
Magnetic Variation 3.131° E
Sunrise 2017-12-18 13:21:36 UTC / 2017-12-18 07:21:36 Local
Sunset 2017-12-18 23:26:43 UTC / 2017-12-18 17:26:43 Local
Advertisement - Login to hide

Runways

ID Width Length Bearing (true) Bearing (mag) Surface Threshold Offset Overrun Length
18 60 ft / 18 m 4,015 ft / 1,224 m 189.23° 186.10° Asphalt 0 ft / 0 m 0 ft / 0 m
36 60 ft / 18 m 4,015 ft / 1,224 m 9.23° 6.10° Asphalt 0 ft / 0 m 0 ft / 0 m

Map

Weather


0- 5 10 15 20 25 30 35+ Temperature / ° C

Clouds and Precipitation
Forecast for 2017-12-18 18:00 UTC. Updated 2 hours ago

Ground ~20,000 ft ~40,000 ft Winds

METAR

KLXY 181835Z AUTO 00000KT 10SM OVC004 12/11 A3017 RMK AO2 T01170112

TAF

Not found

Frequencies

Unicom 122.80 MHz CTAF/UNICOM
Approach 135.20 MHz WACO APP/DEP
Warning: Do not use this data for real-world aviation or navigation. No guarantee of current accuracy is given.